sensor_id;sensor_type;location;lat;lon;timestamp;temperature;humidity
43808;DHT22;29438;50.664;10.098;2024-01-25T00:00:16;5.60;87.20
43808;DHT22;29438;50.664;10.098;2024-01-25T00:02:41;5.50;87.10
43808;DHT22;29438;50.664;10.098;2024-01-25T00:05:07;5.60;87.00
43808;DHT22;29438;50.664;10.098;2024-01-25T00:07:33;5.70;86.70
43808;DHT22;29438;50.664;10.098;2024-01-25T00:09:58;5.70;86.60
43808;DHT22;29438;50.664;10.098;2024-01-25T00:12:24;5.70;86.60
43808;DHT22;29438;50.664;10.098;2024-01-25T00:14:49;5.70;86.60
43808;DHT22;29438;50.664;10.098;2024-01-25T00:17:15;5.80;86.40
43808;DHT22;29438;50.664;10.098;2024-01-25T00:19:40;5.80;86.20
43808;DHT22;29438;50.664;10.098;2024-01-25T00:22:06;5.80;86.50
43808;DHT22;29438;50.664;10.098;2024-01-25T00:24:32;5.80;86.80
43808;DHT22;29438;50.664;10.098;2024-01-25T00:26:58;5.80;86.90
43808;DHT22;29438;50.664;10.098;2024-01-25T00:29:24;5.80;87.00
43808;DHT22;29438;50.664;10.098;2024-01-25T00:31:49;5.80;87.00
43808;DHT22;29438;50.664;10.098;2024-01-25T00:34:15;5.80;87.00
43808;DHT22;29438;50.664;10.098;2024-01-25T00:36:41;5.80;87.50
43808;DHT22;29438;50.664;10.098;2024-01-25T00:39:07;5.70;87.70
43808;DHT22;29438;50.664;10.098;2024-01-25T00:41:34;5.70;88.10
43808;DHT22;29438;50.664;10.098;2024-01-25T00:44:01;5.70;88.40
43808;DHT22;29438;50.664;10.098;2024-01-25T00:46:26;5.70;88.40
43808;DHT22;29438;50.664;10.098;2024-01-25T00:48:52;5.70;88.70
43808;DHT22;29438;50.664;10.098;2024-01-25T00:51:22;5.60;88.60
43808;DHT22;29438;50.664;10.098;2024-01-25T00:53:50;5.60;89.10
43808;DHT22;29438;50.664;10.098;2024-01-25T00:56:16;5.40;89.30
43808;DHT22;29438;50.664;10.098;2024-01-25T00:58:42;5.40;89.60
43808;DHT22;29438;50.664;10.098;2024-01-25T01:01:08;5.40;89.60
43808;DHT22;29438;50.664;10.098;2024-01-25T01:03:35;5.40;89.60
43808;DHT22;29438;50.664;10.098;2024-01-25T01:06:01;5.40;89.70
43808;DHT22;29438;50.664;10.098;2024-01-25T01:08:28;5.40;89.90
43808;DHT22;29438;50.664;10.098;2024-01-25T01:10:53;5.50;89.80
43808;DHT22;29438;50.664;10.098;2024-01-25T01:13:19;5.40;89.70
43808;DHT22;29438;50.664;10.098;2024-01-25T01:15:44;5.30;89.90
43808;DHT22;29438;50.664;10.098;2024-01-25T01:18:10;5.40;90.20
43808;DHT22;29438;50.664;10.098;2024-01-25T01:20:35;5.30;90.10
43808;DHT22;29438;50.664;10.098;2024-01-25T01:23:00;5.20;90.30
43808;DHT22;29438;50.664;10.098;2024-01-25T01:25:26;5.20;90.60
43808;DHT22;29438;50.664;10.098;2024-01-25T01:27:51;5.10;90.80
43808;DHT22;29438;50.664;10.098;2024-01-25T01:30:17;5.10;90.90
43808;DHT22;29438;50.664;10.098;2024-01-25T01:32:43;5.10;91.10
43808;DHT22;29438;50.664;10.098;2024-01-25T01:35:08;5.20;91.00
43808;DHT22;29438;50.664;10.098;2024-01-25T01:37:34;5.10;91.00
43808;DHT22;29438;50.664;10.098;2024-01-25T01:39:59;5.20;91.10
43808;DHT22;29438;50.664;10.098;2024-01-25T01:42:25;5.20;91.00
43808;DHT22;29438;50.664;10.098;2024-01-25T01:44:51;5.30;90.70
43808;DHT22;29438;50.664;10.098;2024-01-25T01:47:17;5.40;90.50
43808;DHT22;29438;50.664;10.098;2024-01-25T01:49:43;5.30;90.30
43808;DHT22;29438;50.664;10.098;2024-01-25T01:52:09;5.30;90.40
43808;DHT22;29438;50.664;10.098;2024-01-25T01:54:35;5.30;90.30
43808;DHT22;29438;50.664;10.098;2024-01-25T01:57:01;5.20;90.30
43808;DHT22;29438;50.664;10.098;2024-01-25T01:59:27;5.30;90.30
43808;DHT22;29438;50.664;10.098;2024-01-25T02:01:54;5.30;90.10
43808;DHT22;29438;50.664;10.098;2024-01-25T02:04:20;5.30;89.90
43808;DHT22;29438;50.664;10.098;2024-01-25T02:06:45;5.30;89.70
43808;DHT22;29438;50.664;10.098;2024-01-25T02:09:11;5.40;89.70
43808;DHT22;29438;50.664;10.098;2024-01-25T02:11:37;5.30;89.60
43808;DHT22;29438;50.664;10.098;2024-01-25T02:14:02;5.40;89.10
43808;DHT22;29438;50.664;10.098;2024-01-25T02:16:28;5.50;88.10
43808;DHT22;29438;50.664;10.098;2024-01-25T02:18:53;5.50;87.10
43808;DHT22;29438;50.664;10.098;2024-01-25T02:21:22;5.40;87.00
43808;DHT22;29438;50.664;10.098;2024-01-25T02:23:47;5.30;87.80
43808;DHT22;29438;50.664;10.098;2024-01-25T02:26:13;5.30;88.40
43808;DHT22;29438;50.664;10.098;2024-01-25T02:28:38;5.30;88.80
43808;DHT22;29438;50.664;10.098;2024-01-25T02:31:04;5.20;89.60
43808;DHT22;29438;50.664;10.098;2024-01-25T02:33:29;5.10;90.10
43808;DHT22;29438;50.664;10.098;2024-01-25T02:35:55;5.00;90.60
43808;DHT22;29438;50.664;10.098;2024-01-25T02:38:21;5.00;90.90
43808;DHT22;29438;50.664;10.098;2024-01-25T02:40:46;5.00;91.10
43808;DHT22;29438;50.664;10.098;2024-01-25T02:43:12;5.00;91.20
43808;DHT22;29438;50.664;10.098;2024-01-25T02:45:37;5.10;91.20
43808;DHT22;29438;50.664;10.098;2024-01-25T02:48:04;5.10;91.20
43808;DHT22;29438;50.664;10.098;2024-01-25T02:50:29;5.10;91.20
43808;DHT22;29438;50.664;10.098;2024-01-25T02:52:55;5.00;91.30
43808;DHT22;29438;50.664;10.098;2024-01-25T02:55:21;5.00;91.20
43808;DHT22;29438;50.664;10.098;2024-01-25T02:57:46;5.10;91.30
43808;DHT22;29438;50.664;10.098;2024-01-25T03:00:12;5.00;91.30
43808;DHT22;29438;50.664;10.098;2024-01-25T03:02:38;5.00;91.30
43808;DHT22;29438;50.664;10.098;2024-01-25T03:05:04;5.00;91.50
43808;DHT22;29438;50.664;10.098;2024-01-25T03:07:29;4.90;91.20
43808;DHT22;29438;50.664;10.098;2024-01-25T03:09:55;4.80;91.40
43808;DHT22;29438;50.664;10.098;2024-01-25T03:12:20;4.80;91.60
43808;DHT22;29438;50.664;10.098;2024-01-25T03:14:47;4.70;91.50
43808;DHT22;29438;50.664;10.098;2024-01-25T03:17:13;4.60;91.70
43808;DHT22;29438;50.664;10.098;2024-01-25T03:19:39;4.70;91.40
43808;DHT22;29438;50.664;10.098;2024-01-25T03:22:04;4.70;91.30
43808;DHT22;29438;50.664;10.098;2024-01-25T03:24:30;4.70;91.20
43808;DHT22;29438;50.664;10.098;2024-01-25T03:26:55;4.80;91.20
43808;DHT22;29438;50.664;10.098;2024-01-25T03:29:21;4.70;91.10
43808;DHT22;29438;50.664;10.098;2024-01-25T03:31:47;4.80;91.00
43808;DHT22;29438;50.664;10.098;2024-01-25T03:34:12;4.70;91.00
43808;DHT22;29438;50.664;10.098;2024-01-25T03:36:38;4.60;91.30
43808;DHT22;29438;50.664;10.098;2024-01-25T03:39:05;4.50;90.90
43808;DHT22;29438;50.664;10.098;2024-01-25T03:41:32;4.60;91.10
43808;DHT22;29438;50.664;10.098;2024-01-25T03:43:57;4.70;90.70
43808;DHT22;29438;50.664;10.098;2024-01-25T03:46:23;4.70;90.60
43808;DHT22;29438;50.664;10.098;2024-01-25T03:48:48;4.70;90.60
43808;DHT22;29438;50.664;10.098;2024-01-25T03:51:14;4.70;90.60
43808;DHT22;29438;50.664;10.098;2024-01-25T03:53:39;4.70;90.60
43808;DHT22;29438;50.664;10.098;2024-01-25T03:56:11;4.60;90.60
43808;DHT22;29438;50.664;10.098;2024-01-25T03:58:38;4.60;90.50
43808;DHT22;29438;50.664;10.098;2024-01-25T04:01:03;4.50;90.80
43808;DHT22;29438;50.664;10.098;2024-01-25T04:03:29;4.60;90.90
43808;DHT22;29438;50.664;10.098;2024-01-25T04:05:55;4.60;90.60
43808;DHT22;29438;50.664;10.098;2024-01-25T04:08:20;4.50;90.60
43808;DHT22;29438;50.664;10.098;2024-01-25T04:10:46;4.60;90.70
43808;DHT22;29438;50.664;10.098;2024-01-25T04:13:11;4.60;90.50
43808;DHT22;29438;50.664;10.098;2024-01-25T04:15:37;4.50;90.90
43808;DHT22;29438;50.664;10.098;2024-01-25T04:18:02;4.40;90.90
43808;DHT22;29438;50.664;10.098;2024-01-25T04:20:28;4.50;91.00
43808;DHT22;29438;50.664;10.098;2024-01-25T04:22:54;4.40;90.90
43808;DHT22;29438;50.664;10.098;2024-01-25T04:25:19;4.40;90.90
43808;DHT22;29438;50.664;10.098;2024-01-25T04:27:45;4.30;91.00
43808;DHT22;29438;50.664;10.098;2024-01-25T04:30:10;4.40;91.00
43808;DHT22;29438;50.664;10.098;2024-01-25T04:32:36;4.30;91.10
43808;DHT22;29438;50.664;10.098;2024-01-25T04:35:01;4.30;91.20
43808;DHT22;29438;50.664;10.098;2024-01-25T04:37:27;4.40;91.10
43808;DHT22;29438;50.664;10.098;2024-01-25T04:39:52;4.30;90.90
43808;DHT22;29438;50.664;10.098;2024-01-25T04:42:18;4.30;91.20
43808;DHT22;29438;50.664;10.098;2024-01-25T04:44:43;4.20;91.20
43808;DHT22;29438;50.664;10.098;2024-01-25T04:47:09;4.40;91.40
43808;DHT22;29438;50.664;10.098;2024-01-25T04:49:35;4.40;91.00
43808;DHT22;29438;50.664;10.098;2024-01-25T04:52:01;4.40;90.80
43808;DHT22;29438;50.664;10.098;2024-01-25T04:54:26;4.50;90.90
43808;DHT22;29438;50.664;10.098;2024-01-25T04:56:52;4.50;90.60
43808;DHT22;29438;50.664;10.098;2024-01-25T04:59:18;4.50;90.70
43808;DHT22;29438;50.664;10.098;2024-01-25T05:01:43;4.50;90.40
43808;DHT22;29438;50.664;10.098;2024-01-25T05:04:09;4.40;90.50
43808;DHT22;29438;50.664;10.098;2024-01-25T05:06:34;4.30;90.60
43808;DHT22;29438;50.664;10.098;2024-01-25T05:09:00;4.30;90.90
43808;DHT22;29438;50.664;10.098;2024-01-25T05:11:26;4.30;91.10
43808;DHT22;29438;50.664;10.098;2024-01-25T05:13:51;4.40;90.90
43808;DHT22;29438;50.664;10.098;2024-01-25T05:16:17;4.30;90.80
43808;DHT22;29438;50.664;10.098;2024-01-25T05:18:42;4.20;90.70
43808;DHT22;29438;50.664;10.098;2024-01-25T05:21:08;4.00;91.10
43808;DHT22;29438;50.664;10.098;2024-01-25T05:23:33;4.00;91.30
43808;DHT22;29438;50.664;10.098;2024-01-25T05:25:59;4.10;91.30
43808;DHT22;29438;50.664;10.098;2024-01-25T05:28:24;4.00;91.20
43808;DHT22;29438;50.664;10.098;2024-01-25T05:30:50;4.00;91.50
43808;DHT22;29438;50.664;10.098;2024-01-25T05:33:16;4.00;91.50
43808;DHT22;29438;50.664;10.098;2024-01-25T05:35:41;4.10;91.50
43808;DHT22;29438;50.664;10.098;2024-01-25T05:38:07;4.10;91.40
43808;DHT22;29438;50.664;10.098;2024-01-25T05:40:32;4.20;91.20
43808;DHT22;29438;50.664;10.098;2024-01-25T05:42:59;4.30;91.10
43808;DHT22;29438;50.664;10.098;2024-01-25T05:45:24;4.30;90.90
43808;DHT22;29438;50.664;10.098;2024-01-25T05:47:50;4.30;90.70
43808;DHT22;29438;50.664;10.098;2024-01-25T05:50:15;4.30;90.70
43808;DHT22;29438;50.664;10.098;2024-01-25T05:52:41;4.30;90.70
43808;DHT22;29438;50.664;10.098;2024-01-25T05:55:07;4.30;90.70
43808;DHT22;29438;50.664;10.098;2024-01-25T05:57:35;4.30;90.60
43808;DHT22;29438;50.664;10.098;2024-01-25T06:00:01;4.30;90.60
43808;DHT22;29438;50.664;10.098;2024-01-25T06:02:26;4.30;90.50
43808;DHT22;29438;50.664;10.098;2024-01-25T06:04:52;4.40;90.30
43808;DHT22;29438;50.664;10.098;2024-01-25T06:07:17;4.40;90.30
43808;DHT22;29438;50.664;10.098;2024-01-25T06:09:43;4.40;90.10
43808;DHT22;29438;50.664;10.098;2024-01-25T06:12:08;4.40;90.10
43808;DHT22;29438;50.664;10.098;2024-01-25T06:14:34;4.40;89.90
43808;DHT22;29438;50.664;10.098;2024-01-25T06:16:59;4.40;89.90
43808;DHT22;29438;50.664;10.098;2024-01-25T06:19:25;4.30;89.90
43808;DHT22;29438;50.664;10.098;2024-01-25T06:21:50;4.30;89.70
43808;DHT22;29438;50.664;10.098;2024-01-25T06:24:16;4.20;89.90
43808;DHT22;29438;50.664;10.098;2024-01-25T06:26:41;4.20;90.10
43808;DHT22;29438;50.664;10.098;2024-01-25T06:29:07;4.00;90.10
43808;DHT22;29438;50.664;10.098;2024-01-25T06:31:32;4.00;90.10
43808;DHT22;29438;50.664;10.098;2024-01-25T06:33:58;4.00;90.40
43808;DHT22;29438;50.664;10.098;2024-01-25T06:36:23;3.90;90.30
43808;DHT22;29438;50.664;10.098;2024-01-25T06:38:49;3.80;90.20
43808;DHT22;29438;50.664;10.098;2024-01-25T06:41:14;3.70;90.70
43808;DHT22;29438;50.664;10.098;2024-01-25T06:43:43;3.80;90.60
43808;DHT22;29438;50.664;10.098;2024-01-25T06:46:08;3.70;90.70
43808;DHT22;29438;50.664;10.098;2024-01-25T06:48:34;3.70;90.90
43808;DHT22;29438;50.664;10.098;2024-01-25T06:51:00;3.70;90.90
43808;DHT22;29438;50.664;10.098;2024-01-25T06:53:28;3.70;90.70
43808;DHT22;29438;50.664;10.098;2024-01-25T06:55:54;3.60;91.00
43808;DHT22;29438;50.664;10.098;2024-01-25T06:58:20;3.60;91.10
43808;DHT22;29438;50.664;10.098;2024-01-25T07:00:45;3.60;90.90
43808;DHT22;29438;50.664;10.098;2024-01-25T07:03:12;3.40;90.80
43808;DHT22;29438;50.664;10.098;2024-01-25T07:05:38;3.40;90.90
43808;DHT22;29438;50.664;10.098;2024-01-25T07:08:04;3.20;91.10
43808;DHT22;29438;50.664;10.098;2024-01-25T07:10:29;3.10;91.20
43808;DHT22;29438;50.664;10.098;2024-01-25T07:12:55;3.10;91.40
43808;DHT22;29438;50.664;10.098;2024-01-25T07:15:21;3.10;91.70
43808;DHT22;29438;50.664;10.098;2024-01-25T07:17:46;3.30;91.60
43808;DHT22;29438;50.664;10.098;2024-01-25T07:20:12;3.20;91.50
43808;DHT22;29438;50.664;10.098;2024-01-25T07:22:38;3.30;91.50
43808;DHT22;29438;50.664;10.098;2024-01-25T07:25:04;3.30;91.40
43808;DHT22;29438;50.664;10.098;2024-01-25T07:27:30;3.30;91.30
43808;DHT22;29438;50.664;10.098;2024-01-25T07:29:55;3.30;91.20
43808;DHT22;29438;50.664;10.098;2024-01-25T07:32:21;3.30;91.30
43808;DHT22;29438;50.664;10.098;2024-01-25T07:34:46;3.40;91.20
43808;DHT22;29438;50.664;10.098;2024-01-25T07:37:13;3.50;91.30
43808;DHT22;29438;50.664;10.098;2024-01-25T07:39:38;3.90;91.20
43808;DHT22;29438;50.664;10.098;2024-01-25T07:42:04;4.30;90.10
43808;DHT22;29438;50.664;10.098;2024-01-25T07:44:30;4.80;89.10
43808;DHT22;29438;50.664;10.098;2024-01-25T07:46:55;5.10;87.80
43808;DHT22;29438;50.664;10.098;2024-01-25T07:49:21;5.10;87.10
43808;DHT22;29438;50.664;10.098;2024-01-25T07:51:46;5.00;87.00
43808;DHT22;29438;50.664;10.098;2024-01-25T07:54:12;4.80;87.00
43808;DHT22;29438;50.664;10.098;2024-01-25T07:56:38;4.80;87.10
43808;DHT22;29438;50.664;10.098;2024-01-25T07:59:03;4.80;87.30
43808;DHT22;29438;50.664;10.098;2024-01-25T08:01:29;4.70;87.40
43808;DHT22;29438;50.664;10.098;2024-01-25T08:03:54;4.80;87.40
43808;DHT22;29438;50.664;10.098;2024-01-25T08:06:21;4.80;87.00
43808;DHT22;29438;50.664;10.098;2024-01-25T08:08:47;4.80;87.10
43808;DHT22;29438;50.664;10.098;2024-01-25T08:11:13;4.80;86.70
43808;DHT22;29438;50.664;10.098;2024-01-25T08:13:42;4.90;86.60
43808;DHT22;29438;50.664;10.098;2024-01-25T08:16:09;5.20;86.40
43808;DHT22;29438;50.664;10.098;2024-01-25T08:18:36;5.80;84.80
43808;DHT22;29438;50.664;10.098;2024-01-25T08:21:01;6.70;83.30
43808;DHT22;29438;50.664;10.098;2024-01-25T08:23:27;7.70;80.20
43808;DHT22;29438;50.664;10.098;2024-01-25T08:25:53;8.20;77.00
43808;DHT22;29438;50.664;10.098;2024-01-25T08:28:18;8.60;74.80
43808;DHT22;29438;50.664;10.098;2024-01-25T08:30:45;8.10;75.80
43808;DHT22;29438;50.664;10.098;2024-01-25T08:33:10;8.00;76.10
43808;DHT22;29438;50.664;10.098;2024-01-25T08:35:36;7.90;75.70
43808;DHT22;29438;50.664;10.098;2024-01-25T08:38:01;8.20;76.40
43808;DHT22;29438;50.664;10.098;2024-01-25T08:40:28;8.70;75.40
43808;DHT22;29438;50.664;10.098;2024-01-25T08:42:54;8.80;74.40
43808;DHT22;29438;50.664;10.098;2024-01-25T08:45:19;8.40;73.40
43808;DHT22;29438;50.664;10.098;2024-01-25T08:47:45;7.70;76.40
43808;DHT22;29438;50.664;10.098;2024-01-25T08:50:13;7.70;76.80
43808;DHT22;29438;50.664;10.098;2024-01-25T08:52:38;8.40;76.00
43808;DHT22;29438;50.664;10.098;2024-01-25T08:55:06;8.50;74.30
43808;DHT22;29438;50.664;10.098;2024-01-25T08:57:32;8.20;75.20
43808;DHT22;29438;50.664;10.098;2024-01-25T08:59:58;7.30;77.30
43808;DHT22;29438;50.664;10.098;2024-01-25T09:02:24;7.10;77.90
43808;DHT22;29438;50.664;10.098;2024-01-25T09:04:53;6.70;79.80
43808;DHT22;29438;50.664;10.098;2024-01-25T09:07:19;6.80;80.60
43808;DHT22;29438;50.664;10.098;2024-01-25T09:09:45;6.80;79.20
43808;DHT22;29438;50.664;10.098;2024-01-25T09:12:10;7.10;80.00
43808;DHT22;29438;50.664;10.098;2024-01-25T09:14:38;7.60;78.50
43808;DHT22;29438;50.664;10.098;2024-01-25T09:17:04;7.90;77.20
43808;DHT22;29438;50.664;10.098;2024-01-25T09:19:29;8.30;75.40
43808;DHT22;29438;50.664;10.098;2024-01-25T09:21:55;8.60;73.70
43808;DHT22;29438;50.664;10.098;2024-01-25T09:24:22;8.30;74.70
43808;DHT22;29438;50.664;10.098;2024-01-25T09:26:47;8.80;73.40
43808;DHT22;29438;50.664;10.098;2024-01-25T09:29:13;9.00;73.00
43808;DHT22;29438;50.664;10.098;2024-01-25T09:31:38;9.40;71.40
43808;DHT22;29438;50.664;10.098;2024-01-25T09:34:04;9.70;70.40
43808;DHT22;29438;50.664;10.098;2024-01-25T09:36:29;9.10;72.10
43808;DHT22;29438;50.664;10.098;2024-01-25T09:38:55;9.00;71.20
43808;DHT22;29438;50.664;10.098;2024-01-25T09:41:20;8.80;72.00
43808;DHT22;29438;50.664;10.098;2024-01-25T09:43:46;8.60;72.40
43808;DHT22;29438;50.664;10.098;2024-01-25T09:46:13;7.60;75.60
43808;DHT22;29438;50.664;10.098;2024-01-25T09:48:41;7.80;75.50
43808;DHT22;29438;50.664;10.098;2024-01-25T09:51:09;7.90;76.00
43808;DHT22;29438;50.664;10.098;2024-01-25T09:53:35;8.70;73.70
43808;DHT22;29438;50.664;10.098;2024-01-25T09:56:07;8.60;73.50
43808;DHT22;29438;50.664;10.098;2024-01-25T09:58:40;8.70;73.10
43808;DHT22;29438;50.664;10.098;2024-01-25T10:01:14;8.30;72.80
43808;DHT22;29438;50.664;10.098;2024-01-25T10:03:46;8.00;75.10
43808;DHT22;29438;50.664;10.098;2024-01-25T10:06:13;8.20;74.00
43808;DHT22;29438;50.664;10.098;2024-01-25T10:08:39;7.80;76.50
43808;DHT22;29438;50.664;10.098;2024-01-25T10:11:05;8.30;74.60
43808;DHT22;29438;50.664;10.098;2024-01-25T10:13:31;8.20;73.90
43808;DHT22;29438;50.664;10.098;2024-01-25T10:15:57;8.40;74.80
43808;DHT22;29438;50.664;10.098;2024-01-25T10:18:25;8.30;73.70
43808;DHT22;29438;50.664;10.098;2024-01-25T10:20:53;8.40;73.80
43808;DHT22;29438;50.664;10.098;2024-01-25T10:23:18;8.00;73.80
43808;DHT22;29438;50.664;10.098;2024-01-25T10:25:44;8.00;74.70
43808;DHT22;29438;50.664;10.098;2024-01-25T10:28:09;7.90;75.30
43808;DHT22;29438;50.664;10.098;2024-01-25T10:30:35;7.70;74.70
43808;DHT22;29438;50.664;10.098;2024-01-25T10:33:02;7.60;75.40
43808;DHT22;29438;50.664;10.098;2024-01-25T10:35:28;7.60;75.80
43808;DHT22;29438;50.664;10.098;2024-01-25T10:37:54;7.60;75.00
43808;DHT22;29438;50.664;10.098;2024-01-25T10:40:21;7.70;75.50
43808;DHT22;29438;50.664;10.098;2024-01-25T10:42:47;7.30;75.20
43808;DHT22;29438;50.664;10.098;2024-01-25T10:45:13;7.10;76.00
43808;DHT22;29438;50.664;10.098;2024-01-25T10:47:39;7.10;76.00
43808;DHT22;29438;50.664;10.098;2024-01-25T10:50:11;7.30;76.00
43808;DHT22;29438;50.664;10.098;2024-01-25T10:52:39;7.30;75.30
43808;DHT22;29438;50.664;10.098;2024-01-25T10:55:06;7.00;76.30
43808;DHT22;29438;50.664;10.098;2024-01-25T10:57:43;7.10;76.30
43808;DHT22;29438;50.664;10.098;2024-01-25T11:00:11;7.30;76.00
43808;DHT22;29438;50.664;10.098;2024-01-25T11:02:40;7.50;75.10
43808;DHT22;29438;50.664;10.098;2024-01-25T11:05:09;7.50;74.10
43808;DHT22;29438;50.664;10.098;2024-01-25T11:07:49;7.10;75.20
43808;DHT22;29438;50.664;10.098;2024-01-25T11:10:19;7.00;75.90
43808;DHT22;29438;50.664;10.098;2024-01-25T11:12:55;6.70;75.40
43808;DHT22;29438;50.664;10.098;2024-01-25T11:17:58;6.60;76.00
43808;DHT22;29438;50.664;10.098;2024-01-25T11:20:25;6.70;76.90
43808;DHT22;29438;50.664;10.098;2024-01-25T11:23:02;6.80;76.10
43808;DHT22;29438;50.664;10.098;2024-01-25T11:25:33;6.80;76.20
43808;DHT22;29438;50.664;10.098;2024-01-25T11:28:03;6.80;75.50
43808;DHT22;29438;50.664;10.098;2024-01-25T11:30:31;6.90;75.80
43808;DHT22;29438;50.664;10.098;2024-01-25T11:32:57;6.90;75.80
43808;DHT22;29438;50.664;10.098;2024-01-25T11:35:22;6.90;75.60
43808;DHT22;29438;50.664;10.098;2024-01-25T11:37:50;7.20;75.70
43808;DHT22;29438;50.664;10.098;2024-01-25T11:40:17;7.10;75.30
43808;DHT22;29438;50.664;10.098;2024-01-25T11:42:45;7.30;75.80
43808;DHT22;29438;50.664;10.098;2024-01-25T11:45:11;7.30;74.60
43808;DHT22;29438;50.664;10.098;2024-01-25T11:47:38;7.10;75.30
43808;DHT22;29438;50.664;10.098;2024-01-25T11:50:05;7.10;75.60
43808;DHT22;29438;50.664;10.098;2024-01-25T11:52:31;7.20;75.50
43808;DHT22;29438;50.664;10.098;2024-01-25T11:55:05;7.40;75.10
43808;DHT22;29438;50.664;10.098;2024-01-25T11:57:34;7.40;75.00
43808;DHT22;29438;50.664;10.098;2024-01-25T12:00:00;7.30;75.40
43808;DHT22;29438;50.664;10.098;2024-01-25T12:02:26;7.20;74.60
43808;DHT22;29438;50.664;10.098;2024-01-25T12:04:52;7.00;76.20
43808;DHT22;29438;50.664;10.098;2024-01-25T12:07:21;7.20;76.00
43808;DHT22;29438;50.664;10.098;2024-01-25T12:10:02;6.90;75.80
43808;DHT22;29438;50.664;10.098;2024-01-25T12:12:28;6.70;76.10
43808;DHT22;29438;50.664;10.098;2024-01-25T12:15:01;6.90;76.80
43808;DHT22;29438;50.664;10.098;2024-01-25T12:17:29;6.80;75.50
43808;DHT22;29438;50.664;10.098;2024-01-25T12:19:58;6.70;76.50
43808;DHT22;29438;50.664;10.098;2024-01-25T12:22:27;6.80;76.50
43808;DHT22;29438;50.664;10.098;2024-01-25T12:24:59;6.70;76.20
43808;DHT22;29438;50.664;10.098;2024-01-25T12:27:26;6.60;77.20
43808;DHT22;29438;50.664;10.098;2024-01-25T12:29:52;6.60;77.00
43808;DHT22;29438;50.664;10.098;2024-01-25T12:32:21;6.60;77.10
43808;DHT22;29438;50.664;10.098;2024-01-25T12:34:57;6.70;77.30
43808;DHT22;29438;50.664;10.098;2024-01-25T12:37:23;6.60;77.00
43808;DHT22;29438;50.664;10.098;2024-01-25T12:39:52;6.70;76.40
43808;DHT22;29438;50.664;10.098;2024-01-25T12:42:18;7.00;76.40
43808;DHT22;29438;50.664;10.098;2024-01-25T12:44:44;6.90;75.90
43808;DHT22;29438;50.664;10.098;2024-01-25T12:47:13;7.00;76.00
43808;DHT22;29438;50.664;10.098;2024-01-25T12:49:40;7.00;75.50
43808;DHT22;29438;50.664;10.098;2024-01-25T12:52:08;7.00;75.70
43808;DHT22;29438;50.664;10.098;2024-01-25T12:54:33;7.20;75.10
43808;DHT22;29438;50.664;10.098;2024-01-25T12:56:59;7.50;74.70
43808;DHT22;29438;50.664;10.098;2024-01-25T12:59:24;7.40;74.30
43808;DHT22;29438;50.664;10.098;2024-01-25T13:01:50;7.30;74.30
43808;DHT22;29438;50.664;10.098;2024-01-25T13:04:15;7.90;72.80
43808;DHT22;29438;50.664;10.098;2024-01-25T13:06:41;8.10;72.30
43808;DHT22;29438;50.664;10.098;2024-01-25T13:09:06;8.10;71.50
43808;DHT22;29438;50.664;10.098;2024-01-25T13:11:32;7.80;71.90
43808;DHT22;29438;50.664;10.098;2024-01-25T13:13:57;7.80;73.10
43808;DHT22;29438;50.664;10.098;2024-01-25T13:16:22;7.60;72.90
43808;DHT22;29438;50.664;10.098;2024-01-25T13:18:48;7.30;73.40
43808;DHT22;29438;50.664;10.098;2024-01-25T13:21:13;7.30;73.10
43808;DHT22;29438;50.664;10.098;2024-01-25T13:23:39;7.10;73.30
43808;DHT22;29438;50.664;10.098;2024-01-25T13:26:04;6.90;73.50
43808;DHT22;29438;50.664;10.098;2024-01-25T13:28:30;6.90;74.50
43808;DHT22;29438;50.664;10.098;2024-01-25T13:30:56;6.70;75.10
43808;DHT22;29438;50.664;10.098;2024-01-25T13:33:22;6.60;75.40
43808;DHT22;29438;50.664;10.098;2024-01-25T13:35:48;6.60;75.50
43808;DHT22;29438;50.664;10.098;2024-01-25T13:38:13;6.60;75.80
43808;DHT22;29438;50.664;10.098;2024-01-25T13:40:41;6.80;75.70
43808;DHT22;29438;50.664;10.098;2024-01-25T13:43:07;6.70;75.00
43808;DHT22;29438;50.664;10.098;2024-01-25T13:45:33;6.60;74.80
43808;DHT22;29438;50.664;10.098;2024-01-25T13:47:58;6.50;75.70
43808;DHT22;29438;50.664;10.098;2024-01-25T13:50:24;6.30;76.10
43808;DHT22;29438;50.664;10.098;2024-01-25T13:52:49;6.00;76.60
43808;DHT22;29438;50.664;10.098;2024-01-25T13:55:15;5.90;77.40
43808;DHT22;29438;50.664;10.098;2024-01-25T13:57:40;5.80;78.20
43808;DHT22;29438;50.664;10.098;2024-01-25T14:00:06;5.70;78.50
43808;DHT22;29438;50.664;10.098;2024-01-25T14:02:33;5.70;78.90
43808;DHT22;29438;50.664;10.098;2024-01-25T14:04:59;5.70;78.70
43808;DHT22;29438;50.664;10.098;2024-01-25T14:07:24;5.70;78.20
43808;DHT22;29438;50.664;10.098;2024-01-25T14:09:50;5.70;78.80
43808;DHT22;29438;50.664;10.098;2024-01-25T14:12:17;5.70;78.70
43808;DHT22;29438;50.664;10.098;2024-01-25T14:14:43;5.70;78.70
43808;DHT22;29438;50.664;10.098;2024-01-25T14:17:08;5.70;78.80
43808;DHT22;29438;50.664;10.098;2024-01-25T14:19:34;5.70;78.80
43808;DHT22;29438;50.664;10.098;2024-01-25T14:22:00;5.80;78.70
43808;DHT22;29438;50.664;10.098;2024-01-25T14:24:25;5.80;78.50
43808;DHT22;29438;50.664;10.098;2024-01-25T14:26:51;5.80;78.70
43808;DHT22;29438;50.664;10.098;2024-01-25T14:29:16;5.80;79.00
43808;DHT22;29438;50.664;10.098;2024-01-25T14:31:42;5.90;78.80
43808;DHT22;29438;50.664;10.098;2024-01-25T14:34:08;5.90;78.30
43808;DHT22;29438;50.664;10.098;2024-01-25T14:36:34;5.90;78.50
43808;DHT22;29438;50.664;10.098;2024-01-25T14:39:00;5.80;78.70
43808;DHT22;29438;50.664;10.098;2024-01-25T14:41:26;5.70;79.20
43808;DHT22;29438;50.664;10.098;2024-01-25T14:43:51;5.70;79.80
43808;DHT22;29438;50.664;10.098;2024-01-25T14:46:17;5.60;79.60
43808;DHT22;29438;50.664;10.098;2024-01-25T14:48:43;5.50;79.70
43808;DHT22;29438;50.664;10.098;2024-01-25T14:51:08;5.40;79.90
43808;DHT22;29438;50.664;10.098;2024-01-25T14:53:34;5.30;79.80
43808;DHT22;29438;50.664;10.098;2024-01-25T14:55:59;5.30;80.30
43808;DHT22;29438;50.664;10.098;2024-01-25T14:58:25;5.30;80.60
43808;DHT22;29438;50.664;10.098;2024-01-25T15:00:51;5.20;80.70
43808;DHT22;29438;50.664;10.098;2024-01-25T15:03:18;5.10;80.90
43808;DHT22;29438;50.664;10.098;2024-01-25T15:05:43;5.00;81.20
43808;DHT22;29438;50.664;10.098;2024-01-25T15:08:09;4.90;81.70
43808;DHT22;29438;50.664;10.098;2024-01-25T15:10:34;4.90;81.80
43808;DHT22;29438;50.664;10.098;2024-01-25T15:13:00;4.90;82.30
43808;DHT22;29438;50.664;10.098;2024-01-25T15:15:26;4.80;82.30
43808;DHT22;29438;50.664;10.098;2024-01-25T15:17:53;4.80;82.30
43808;DHT22;29438;50.664;10.098;2024-01-25T15:20:20;4.80;82.10
43808;DHT22;29438;50.664;10.098;2024-01-25T15:22:46;4.80;82.50
43808;DHT22;29438;50.664;10.098;2024-01-25T15:25:11;4.60;82.50